Latest Weather Observations for Meekatharra

IDW60801

Issued at 6:13 pm WST Monday 17 December 2018 (issued every 10 minutes, with the page automatically refreshed every 10 minutes)

About weather observations | Map of weather stations | Latest weather observations for WA | Other Formats
Station Details ID: 007045 Name: MEEKATHARRA AIRPORT Lat: -26.61 Lon: 118.54 Height: 517.0 m
Data from the previous 72 hours. | See also: Recent months at Meekatharra
Date/Time
WST
Temp
°C
App
Temp
°C
Dew
Point
°C
Rel
Hum
%
Delta-T
°C
Wind Press
QNH
hPa
Press
MSL
hPa
Rain since
9am
mm
Dir  Spd
km/h
Gust
km/h
Spd
kts
Gust
kts
17/06:00pm 28.7 22.1 6.1 24 12.2 SW 30 43 16 23 1008.8 1004.9 0.0
17/05:30pm 29.8 23.7 6.5 23 12.7 SSW 28 43 15 23 1008.4 1004.4 0.0
17/05:09pm 30.1 23.5 6.1 22 13.0 SW 30 48 16 26 1007.9 1004.0 0.0
17/05:00pm 30.2 23.8 6.8 23 12.9 SW 30 46 16 25 1007.8 1003.9 0.0
17/04:32pm 29.3 22.7 6.0 23 12.6 SW 30 48 16 26 1007.7 1003.8 0.0
17/04:30pm 29.8 22.8 5.8 22 12.9 SW 32 48 17 26 1007.7 1003.8 0.0
17/04:09pm 31.2 25.2 7.0 22 13.4 S 28 54 15 29 1007.5 1003.6 0.0
17/04:00pm 29.5 24.2 6.8 24 12.5 SSW 24 43 13 23 1007.5 1003.6 0.0
17/03:49pm 30.3 24.3 6.9 23 12.9 SSW 28 46 15 25 1007.5 1003.6 0.0
17/03:30pm 29.0 23.7 7.0 25 12.1 SW 24 41 13 22 1007.5 1003.6 0.0
17/03:04pm 30.0 23.9 6.6 23 12.8 SSW 28 46 15 25 1007.5 1003.6 0.0
17/03:00pm 29.6 24.3 6.9 24 12.5 SSW 24 46 13 25 1007.4 1003.5 0.0
17/02:30pm 29.0 23.6 8.1 27 11.7 SW 26 39 14 21 1007.7 1003.8 0.0
17/02:05pm 30.0 24.6 7.8 25 12.4 SSW 26 48 14 26 1007.8 1003.9 0.0
17/02:00pm 29.3 23.9 7.8 26 12.0 SSW 26 41 14 22 1007.9 1004.0 0.0
17/01:30pm 28.8 23.0 7.9 27 11.6 SSW 28 39 15 21 1008.3 1004.3 0.0
17/01:00pm 28.3 23.4 8.6 29 11.1 SSW 24 37 13 20 1008.4 1004.4 0.0
17/12:30pm 26.8 21.1 8.3 31 10.2 SW 28 44 15 24 1008.6 1004.6 0.0
17/12:00pm 26.3 20.6 8.3 32 10.0 SW 28 41 15 22 1009.0 1005.1 0.0
17/11:30am 26.7 22.3 9.1 33 9.9 SSW 22 32 12 17 1009.1 1005.2 0.0
17/11:00am 24.9 19.5 8.0 34 9.2 SSW 26 41 14 22 1009.5 1005.6 0.0
17/10:30am 24.5 19.7 8.9 37 8.6 SSW 24 33 13 18 1009.7 1005.8 0.0
17/10:00am 23.8 19.5 9.4 40 8.0 SW 22 33 12 18 1009.9 1006.0 0.0
17/09:30am 22.8 17.8 9.6 43 7.3 SSW 26 39 14 21 1009.8 1005.9 0.0
17/09:00am 21.4 17.7 10.3 49 6.2 SSW 20 30 11 16 1009.9 1006.0 0.0
17/08:30am 20.6 16.3 10.7 53 5.5 SW 24 33 13 18 1009.8 1005.9 0.0
17/08:00am 19.9 15.6 10.6 55 5.2 SW 24 32 13 17 1009.6 1005.7 0.0
17/07:30am 19.0 15.1 10.8 59 4.6 SW 22 37 12 20 1009.3 1005.4 0.0
17/07:00am 18.4 15.1 11.5 64 3.9 WSW 20 33 11 18 1009.2 1005.3 0.0
17/06:30am 18.1 15.1 11.9 67 3.5 W 19 26 10 14 1008.7 1004.8 0.0
17/06:00am 17.2 14.1 11.7 70 3.1 W 19 24 10 13 1008.4 1004.4 0.0
17/05:30am 17.5 15.1 11.3 67 3.4 W 15 20 8 11 1007.9 1004.0 0.0
17/05:00am 17.0 14.9 11.1 68 3.3 W 13 22 7 12 1007.4 1003.5 0.0
17/04:30am 17.2 15.0 10.8 66 3.5 W 13 22 7 12 1006.9 1003.0 0.0
17/04:00am 17.5 15.3 10.9 65 3.7 W 13 22 7 12 1006.7 1002.7 0.0
17/03:30am 17.8 15.2 10.7 63 3.9 W 15 22 8 12 1006.7 1002.7 0.0
17/03:00am 18.1 14.7 10.5 61 4.2 WSW 19 30 10 16 1006.8 1002.8 0.0
17/02:30am 18.5 15.0 10.1 58 4.6 WSW 19 24 10 13 1006.6 1002.6 0.0
17/02:00am 18.8 14.7 10.1 57 4.8 SW 22 30 12 16 1006.7 1002.7 0.0
17/01:30am 19.4 15.3 8.7 50 5.7 WSW 20 32 11 17 1006.8 1002.8 0.0
17/01:00am 19.6 15.7 8.6 49 5.9 WSW 19 26 10 14 1006.8 1002.8 0.0
17/12:30am 19.9 15.8 7.9 46 6.3 WSW 19 30 10 16 1007.0 1003.1 0.0
17/12:00am 20.1 16.4 7.8 45 6.5 W 17 24 9 13 1006.9 1003.0 0.0
 
Date/Time
WST
Temp
°C
App
Temp
°C
Dew
Point
°C
Rel
Hum
%
Delta-T
°C
Wind Press
QNH
hPa
Press
MSL
hPa
Rain since
9am
mm
Dir  Spd
km/h
Gust
km/h
Spd
kts
Gust
kts
16/11:30pm 20.5 16.3 8.2 45 6.6 W 20 30 11 16 1007.0 1003.1 0.0
16/11:00pm 20.7 16.8 8.7 46 6.5 WSW 19 30 10 16 1007.1 1003.2 0.0
16/10:30pm 20.9 17.1 9.2 47 6.4 WSW 19 30 10 16 1007.3 1003.4 0.0
16/10:00pm 21.1 15.6 9.0 46 6.6 WSW 28 35 15 19 1007.3 1003.4 0.0
16/09:30pm 22.1 16.7 7.9 40 7.6 WSW 26 39 14 21 1007.2 1003.3 0.0
16/09:14pm 23.9 19.0 4.3 28 9.9 WNW 19 35 10 19 1006.8 1002.8 0.0
16/09:00pm 24.2 20.8 4.0 27 10.2 WNW 11 17 6 9 1006.6 1002.6 0.0
16/08:30pm 24.3 20.2 4.1 27 10.2 WNW 15 20 8 11 1006.7 1002.7 0.0
16/08:00pm 24.5 21.2 4.3 27 10.3 W 11 20 6 11 1006.6 1002.6 0.0
16/07:30pm 24.6 20.1 4.4 27 10.3 W 17 24 9 13 1006.6 1002.6 0.0
16/07:00pm 24.8 20.7 4.5 27 10.4 WNW 15 24 8 13 1006.5 1002.5 0.0
16/06:30pm 25.3 19.9 4.4 26 10.7 W 22 33 12 18 1006.4 1002.4 0.0
16/06:00pm 25.9 20.3 5.5 27 10.7 W 24 33 13 18 1006.0 1002.1 0.0
16/05:30pm 26.6 21.0 5.5 26 11.1 W 24 37 13 20 1005.6 1001.7 0.0
16/05:00pm 26.6 21.0 5.5 26 11.2 W 24 37 13 20 1005.2 1001.3 0.0
16/04:45pm 27.6 21.3 5.8 25 11.6 W 28 48 15 26 1004.9 1000.9 0.0
16/04:30pm 27.1 21.2 6.0 26 11.2 W 26 39 14 21 1004.9 1000.9 0.0
16/04:00pm 28.3 22.7 5.2 23 12.3 WNW 24 37 13 20 1004.8 1000.8 0.0
16/03:30pm 28.3 22.8 5.8 24 12.0 W 24 41 13 22 1004.9 1000.9 0.0
16/03:00pm 28.4 22.3 4.6 22 12.5 W 26 39 14 21 1004.9 1000.9 0.0
16/02:30pm 29.1 23.2 3.9 20 13.1 WNW 24 37 13 20 1005.1 1001.2 0.0
16/02:00pm 28.0 21.8 4.3 22 12.4 W 26 43 14 23 1005.3 1001.4 0.0
16/01:30pm 27.8 22.0 4.2 22 12.2 WSW 24 43 13 23 1005.6 1001.7 0.0
16/01:00pm 27.8 21.8 5.4 24 11.9 W 26 35 14 19 1005.9 1002.0 0.0
16/12:30pm 26.6 20.9 5.0 25 11.3 W 24 37 13 20 1006.3 1002.3 0.0
16/12:00pm 26.2 20.4 6.3 28 10.6 WNW 26 35 14 19 1006.6 1002.6 0.0
16/11:30am 25.8 21.0 7.4 31 10.0 WNW 22 35 12 19 1006.7 1002.7 0.0
16/11:00am 24.4 19.9 7.1 33 9.3 W 20 35 11 19 1007.0 1003.1 0.0
16/10:30am 24.6 20.6 8.1 35 9.0 W 19 28 10 15 1007.3 1003.4 0.0
16/10:00am 23.3 19.5 9.0 40 7.9 W 19 30 10 16 1007.6 1003.7 0.0
16/09:30am 21.0 17.3 9.3 47 6.4 W 19 30 10 16 1007.7 1003.8 0.0
16/09:00am 20.5 16.9 9.7 50 5.9 W 19 28 10 15 1007.9 1004.0 0.0
16/08:30am 20.4 17.0 10.5 53 5.5 W 19 28 10 15 1008.0 1004.1 0.0
16/08:00am 19.2 15.8 10.7 58 4.7 WSW 19 26 10 14 1008.3 1004.3 0.0
16/07:30am 18.9 15.5 11.2 61 4.3 WSW 20 28 11 15 1008.1 1004.2 0.0
16/07:00am 18.1 14.4 11.4 65 3.8 WSW 22 30 12 16 1007.9 1004.0 0.0
16/06:30am 17.6 13.9 11.6 68 3.4 SW 22 30 12 16 1007.8 1003.9 0.0
16/06:00am 17.3 14.3 11.8 70 3.1 SW 19 28 10 15 1007.4 1003.5 0.0
16/05:30am 17.3 14.8 12.2 72 2.9 WSW 17 24 9 13 1006.9 1003.0 0.0
16/05:00am 17.4 14.4 12.1 71 3.0 WSW 19 26 10 14 1006.4 1002.4 0.0
16/04:30am 17.9 14.8 12.1 69 3.3 SW 20 30 11 16 1006.0 1002.1 0.0
16/04:00am 18.6 14.7 12.1 66 3.7 SW 24 32 13 17 1005.6 1001.7 0.0
16/03:30am 19.3 16.8 12.3 64 4.0 WSW 17 24 9 13 1005.3 1001.4 0.0
16/03:00am 19.9 16.5 12.4 62 4.3 SW 22 32 12 17 1005.2 1001.3 0.0
16/02:30am 20.8 17.3 12.2 58 4.9 SW 22 33 12 18 1004.7 1000.7 0.0
16/02:00am 21.7 17.8 12.0 54 5.6 SW 24 32 13 17 1004.5 1000.5 0.0
16/01:30am 22.8 19.7 11.5 49 6.5 WSW 19 26 10 14 1004.5 1000.5 0.0
16/01:00am 23.4 20.7 11.8 48 6.7 WSW 17 24 9 13 1004.5 1000.5 0.0
16/12:30am 23.9 20.3 11.9 47 7.0 WSW 22 33 12 18 1004.5 1000.5 0.0
16/12:00am 24.6 21.8 11.2 43 7.7 WSW 17 28 9 15 1004.7 1000.7 0.0
 
Date/Time
WST
Temp
°C
App
Temp
°C
Dew
Point
°C
Rel
Hum
%
Delta-T
°C
Wind Press
QNH
hPa
Press
MSL
hPa
Rain since
9am
mm
Dir  Spd
km/h
Gust
km/h
Spd
kts
Gust
kts
15/11:30pm 25.1 22.2 10.9 41 8.1 WSW 17 24 9 13 1005.0 1001.0 0.0
15/11:00pm 25.5 22.6 10.9 40 8.4 W 17 24 9 13 1005.2 1001.3 0.0
15/10:30pm 26.0 22.5 11.0 39 8.7 W 20 26 11 14 1005.4 1001.5 0.0
15/10:00pm 26.6 23.2 10.7 37 9.2 WSW 19 26 10 14 1005.7 1001.8 0.0
15/09:30pm 27.3 23.7 10.5 35 9.7 WSW 20 28 11 15 1005.6 1001.7 0.0
15/09:00pm 27.9 25.1 10.1 33 10.2 WSW 15 24 8 13 1005.5 1001.6 0.0
15/08:30pm 28.6 24.4 9.8 31 10.8 W 22 35 12 19 1005.5 1001.6 0.0
15/08:00pm 29.4 25.7 9.5 29 11.4 W 19 32 10 17 1005.2 1001.3 0.0
15/07:30pm 30.2 26.2 9.1 27 12.0 W 20 30 11 16 1004.8 1000.8 0.0
15/07:00pm 31.1 27.0 8.8 25 12.8 W 20 30 11 16 1004.4 1000.4 0.0
15/06:30pm 32.1 27.4 7.7 22 13.7 W 22 32 12 17 1004.1 1000.2 0.0
15/06:00pm 33.0 27.4 7.1 20 14.6 WNW 26 35 14 19 1003.7 999.8 0.0
15/05:30pm 33.9 28.1 6.3 18 15.3 W 26 37 14 20 1003.5 999.6 0.0
15/05:00pm 35.0 29.4 5.4 16 16.4 W 24 35 13 19 1003.2 999.2 0.0
15/04:30pm 35.7 30.8 6.9 17 16.3 WNW 22 37 12 20 1003.1 999.1 0.0
15/04:00pm 35.9 30.3 5.2 15 17.0 WNW 24 41 13 22 1003.1 999.1 0.0
15/03:30pm 35.5 30.7 5.8 16 16.5 WNW 20 35 11 19 1003.2 999.2 0.0
15/03:00pm 36.4 30.1 3.6 13 17.8 WNW 26 39 14 21 1003.3 999.3 0.0
15/02:30pm 35.4 29.7 4.8 15 16.7 WNW 24 37 13 20 1003.4 999.5 0.0
15/02:00pm 36.0 30.2 2.1 12 17.9 WNW 22 37 12 20 1003.9 1000.0 0.0
15/01:30pm 36.2 29.8 3.4 13 17.6 WNW 26 39 14 21 1004.3 1000.3 0.0
15/01:00pm 36.6 30.5 4.8 14 17.5 WNW 26 39 14 21 1004.3 1000.3 0.0
15/12:34pm 35.0 28.8 6.3 17 16.0 NW 28 46 15 25 1004.6 1000.6 0.0
15/12:30pm 35.4 28.6 0.5 11 17.8 NW 26 46 14 25 1004.7 1000.7 0.0
15/12:00pm 35.7 29.7 8.5 19 15.8 NNW 30 44 16 24 1005.0 1001.0 0.0
15/11:30am 34.9 29.1 7.9 19 15.4 NNW 28 41 15 22 1005.2 1001.3 0.0
15/11:00am 35.0 31.3 11.4 24 14.3 NNW 22 32 12 17 1005.4 1001.5 0.0
15/10:30am 33.5 28.8 10.8 25 13.5 NNW 26 35 14 19 1005.7 1001.8 0.0
15/10:00am 33.8 29.1 9.1 22 14.4 NNW 24 37 13 20 1005.8 1001.9 0.0
15/09:30am 33.7 26.9 -2.1 10 17.3 N 24 37 13 20 1006.0 1002.1 0.0
15/09:00am 33.4 25.8 -2.3 10 17.3 N 28 41 15 22 1006.1 1002.2 0.0
15/08:30am 32.2 24.9 -3.2 10 16.7 NNE 26 37 14 20 1006.4 1002.4 0.0
15/08:00am 30.9 23.3 -5.6 9 16.4 NNE 26 39 14 21 1006.5 1002.5 0.0
15/07:30am 30.1 22.8 -6.2 9 16.0 NNE 24 33 13 18 1006.7 1002.7 0.0
15/07:00am 29.3 22.9 -6.8 9 15.7 NNE 19 28 10 15 1006.9 1003.0 0.0
15/06:30am 28.0 22.8 -6.4 10 14.8 NNE 13 20 7 11 1006.9 1003.0 0.0
15/06:00am 25.9 21.4 -6.8 11 13.8 NE 9 13 5 7 1006.7 1002.7 0.0
15/05:30am 24.5 20.0 -6.7 12 13.0 NNE 9 13 5 7 1006.3 1002.3 0.0
15/05:00am 26.0 21.1 -6.7 11 13.8 N 11 13 6 7 1006.1 1002.2 0.0
15/04:30am 26.1 21.2 -6.6 11 13.8 N 11 13 6 7 1005.5 1001.6 0.0
15/04:00am 27.2 21.9 -7.0 10 14.5 N 13 17 7 9 1005.1 1001.2 0.0
15/03:30am 27.5 21.9 -6.8 10 14.6 NE 15 20 8 11 1004.6 1000.6 0.0
15/03:00am 27.3 22.1 -5.7 11 14.4 ENE 13 17 7 9 1004.6 1000.6 0.0
15/02:30am 26.7 22.4 -5.0 12 13.9 NE 9 11 5 6 1004.8 1000.8 0.0
15/02:00am 27.6 23.4 -4.3 12 14.3 NE 9 11 5 6 1004.8 1000.8 0.0
15/01:30am 28.7 24.4 -4.6 11 14.9 NE 9 15 5 8 1004.9 1000.9 0.0
15/01:00am 29.7 24.7 -3.9 11 15.4 NNE 13 17 7 9 1005.2 1001.3 0.0
15/12:30am 30.4 25.5 -3.3 11 15.6 NE 13 20 7 11 1005.5 1001.6 0.0
15/12:00am 31.0 25.0 -2.9 11 16.0 ENE 19 32 10 17 1005.8 1001.9 0.0
 
Date/Time
WST
Temp
°C
App
Temp
°C
Dew
Point
°C
Rel
Hum
%
Delta-T
°C
Wind Press
QNH
hPa
Press
MSL
hPa
Rain since
9am
mm
Dir  Spd
km/h
Gust
km/h
Spd
kts
Gust
kts
14/11:30pm 31.6 25.5 -2.4 11 16.2 ENE 20 30 11 16 1005.9 1002.0 0.0
14/11:00pm 32.0 25.7 -0.9 12 16.1 ENE 22 30 12 16 1005.8 1001.9 0.0
14/10:30pm 32.5 25.5 -0.5 12 16.3 ENE 26 37 14 20 1005.9 1002.0 0.0
14/10:00pm 32.8 25.5 -0.3 12 16.5 E 28 39 15 21 1005.8 1001.9 0.0
14/09:30pm 33.2 26.1 -1.2 11 16.9 E 26 35 14 19 1005.9 1002.0 0.0
14/09:00pm 33.7 26.7 -0.8 11 17.1 E 26 37 14 20 1006.0 1002.1 0.0
14/08:30pm 34.4 27.1 -0.3 11 17.4 E 28 43 15 23 1005.9 1002.0 0.0
14/08:18pm 34.7 26.8 -1.4 10 17.8 E 30 43 16 23 1005.8 1001.9 0.0
14/08:00pm 35.4 29.7 -0.8 10 18.2 E 19 24 10 13 1005.8 1001.9 0.0
14/07:30pm 36.2 30.4 -0.2 10 18.5 E 20 28 11 15 1006.0 1002.1 0.0
14/07:00pm 37.0 32.2 0.4 10 18.9 NE 15 20 8 11 1006.0 1002.1 0.0
14/06:30pm 37.5 32.6 -0.7 9 19.4 ENE 15 20 8 11 1005.9 1002.0 0.0

Other Formats:

Comma delimited format used in spreadsheet applications
http://www.bom.gov.au/fwo/IDW60801/IDW60801.94430.axf

JavaScript Object Notation format (JSON) in row-major order
http://www.bom.gov.au/fwo/IDW60801/IDW60801.94430.json